createdAt,value
2023-03-29T00:01:00.430Z,8.83
2023-03-29T00:03:31.384Z,8.83
2023-03-29T00:06:06.322Z,8.90
2023-03-29T00:08:39.088Z,9.02
2023-03-29T00:11:09.254Z,8.96
2023-03-29T00:13:40.268Z,8.87
2023-03-29T00:16:13.090Z,8.96
2023-03-29T00:18:43.301Z,8.94
2023-03-29T00:21:13.526Z,8.99
2023-03-29T00:23:46.189Z,8.88
2023-03-29T00:26:16.173Z,8.89
2023-03-29T00:28:46.237Z,9.00
2023-03-29T00:31:18.971Z,8.93
2023-03-29T00:33:48.915Z,8.85
2023-03-29T00:36:18.869Z,8.77
2023-03-29T00:38:51.465Z,8.84
2023-03-29T00:41:21.760Z,8.89
2023-03-29T00:43:58.104Z,8.90
2023-03-29T00:46:30.025Z,8.88
2023-03-29T00:49:05.498Z,8.93
2023-03-29T00:51:39.537Z,8.98
2023-03-29T00:54:19.701Z,8.91
2023-03-29T00:56:53.965Z,8.89
2023-03-29T00:59:32.940Z,8.92
2023-03-29T01:02:07.286Z,8.91
2023-03-29T01:04:45.700Z,8.71
2023-03-29T01:07:21.921Z,8.78
2023-03-29T01:10:01.901Z,8.75
2023-03-29T01:12:37.783Z,8.87
2023-03-29T01:15:13.181Z,8.85
2023-03-29T01:17:50.410Z,8.82
2023-03-29T01:20:27.916Z,8.75
2023-03-29T01:23:21.474Z,8.80
2023-03-29T01:26:07.719Z,8.72
2023-03-29T01:28:48.493Z,8.70
2023-03-29T01:31:25.813Z,8.79
2023-03-29T01:34:04.290Z,8.81
2023-03-29T01:36:42.247Z,8.60
2023-03-29T01:39:12.330Z,8.57
2023-03-29T01:41:51.397Z,8.57
2023-03-29T01:44:34.429Z,8.56
2023-03-29T01:47:14.084Z,8.61
2023-03-29T01:49:52.353Z,8.52
2023-03-29T01:52:28.329Z,8.38
2023-03-29T01:55:05.815Z,8.37
2023-03-29T01:57:39.123Z,8.33
2023-03-29T02:00:19.262Z,8.34
2023-03-29T02:02:53.010Z,8.39
2023-03-29T02:05:27.107Z,8.37
2023-03-29T02:08:03.741Z,8.45
2023-03-29T02:10:36.908Z,8.36
2023-03-29T02:13:07.424Z,8.36
2023-03-29T02:15:40.197Z,8.28
2023-03-29T02:18:10.414Z,8.31
2023-03-29T02:20:47.474Z,8.02
2023-03-29T02:23:24.129Z,8.21
2023-03-29T02:25:57.160Z,8.16
2023-03-29T02:28:31.026Z,8.26
2023-03-29T02:31:09.045Z,8.25
2023-03-29T02:33:48.356Z,8.15
2023-03-29T02:36:24.087Z,7.94
2023-03-29T02:38:57.114Z,7.96
2023-03-29T02:41:29.639Z,8.03
2023-03-29T02:44:02.237Z,7.99
2023-03-29T02:46:34.883Z,7.80
2023-03-29T02:49:05.367Z,7.85
2023-03-29T02:51:38.286Z,7.81
2023-03-29T02:54:12.966Z,7.93
2023-03-29T02:56:48.413Z,7.97
2023-03-29T02:59:22.739Z,7.93
2023-03-29T03:01:56.797Z,8.04
2023-03-29T03:04:27.084Z,8.03
2023-03-29T03:06:57.032Z,7.95
2023-03-29T03:09:27.561Z,7.87
2023-03-29T03:11:57.940Z,7.92
2023-03-29T03:14:29.586Z,7.78
2023-03-29T03:17:04.851Z,7.74
2023-03-29T03:19:36.456Z,7.74
2023-03-29T03:22:08.001Z,7.80
2023-03-29T03:24:37.938Z,7.82
2023-03-29T03:27:08.663Z,7.81
2023-03-29T03:29:38.802Z,7.88
2023-03-29T03:32:17.676Z,7.80
2023-03-29T03:35:07.628Z,7.77
2023-03-29T03:37:38.439Z,7.73
2023-03-29T03:40:14.200Z,7.74
2023-03-29T03:42:44.547Z,7.66
2023-03-29T03:45:14.863Z,7.58
2023-03-29T03:48:00.016Z,7.56
2023-03-29T03:50:58.519Z,7.49
2023-03-29T03:53:34.013Z,7.62
2023-03-29T03:56:14.021Z,7.58
2023-03-29T03:59:14.821Z,7.52
2023-03-29T04:02:05.066Z,7.61
2023-03-29T04:04:38.166Z,7.51
2023-03-29T04:07:17.951Z,7.53
2023-03-29T04:10:08.863Z,7.66
2023-03-29T04:12:52.804Z,7.71
2023-03-29T04:15:23.943Z,7.72
2023-03-29T04:18:03.342Z,7.80
2023-03-29T04:20:39.248Z,7.72
2023-03-29T04:23:09.256Z,7.80
2023-03-29T04:25:40.259Z,7.83
2023-03-29T04:28:16.346Z,7.97
2023-03-29T04:31:05.206Z,7.89
2023-03-29T04:34:04.620Z,7.90
2023-03-29T04:36:37.600Z,7.90
2023-03-29T04:39:12.406Z,7.90
2023-03-29T04:41:42.474Z,7.97
2023-03-29T04:44:23.284Z,7.99
2023-03-29T04:46:53.665Z,7.83
2023-03-29T04:49:38.936Z,7.78
2023-03-29T04:52:16.659Z,7.92
2023-03-29T04:54:46.893Z,7.57
2023-03-29T04:57:27.669Z,7.71
2023-03-29T05:00:27.423Z,7.75
2023-03-29T05:02:57.921Z,7.80
2023-03-29T05:05:29.594Z,7.99
2023-03-29T05:08:05.561Z,7.95
2023-03-29T05:10:50.076Z,7.83
2023-03-29T05:13:20.721Z,7.96
2023-03-29T05:15:50.861Z,7.86
2023-03-29T05:18:21.192Z,7.77
2023-03-29T05:20:54.318Z,7.97
2023-03-29T05:23:28.960Z,8.11
2023-03-29T05:26:10.943Z,8.19
2023-03-29T05:28:42.319Z,8.22
2023-03-29T05:31:14.197Z,8.24
2023-03-29T05:33:47.789Z,8.31
2023-03-29T05:36:20.165Z,8.36
2023-03-29T05:38:55.276Z,8.34
2023-03-29T05:41:26.637Z,8.23
2023-03-29T05:44:17.074Z,8.15
2023-03-29T05:46:49.663Z,8.25
2023-03-29T05:49:21.663Z,8.31
2023-03-29T05:52:12.141Z,8.36
2023-03-29T05:54:45.109Z,8.33
2023-03-29T05:57:15.680Z,8.37
2023-03-29T05:59:45.691Z,8.39
2023-03-29T06:02:19.006Z,8.51
2023-03-29T06:04:55.552Z,8.53
2023-03-29T06:07:25.948Z,8.65
2023-03-29T06:10:27.587Z,8.65
2023-03-29T06:13:09.051Z,8.81
2023-03-29T06:15:39.166Z,8.86
2023-03-29T06:18:12.080Z,9.01
2023-03-29T06:20:42.817Z,9.11
2023-03-29T06:23:17.163Z,9.18
2023-03-29T06:25:51.552Z,9.24
2023-03-29T06:28:21.960Z,9.18
2023-03-29T06:30:54.178Z,9.10
2023-03-29T06:33:25.495Z,9.05
2023-03-29T06:36:20.356Z,9.05
2023-03-29T06:38:50.749Z,9.17
2023-03-29T06:41:39.278Z,9.44
2023-03-29T06:44:09.284Z,9.42
2023-03-29T06:46:48.374Z,9.35
2023-03-29T06:49:18.485Z,9.33
2023-03-29T06:52:02.253Z,9.60
2023-03-29T06:54:33.969Z,9.61
2023-03-29T06:57:08.688Z,9.66
2023-03-29T06:59:38.833Z,9.72
2023-03-29T07:02:16.846Z,9.73
2023-03-29T07:04:54.594Z,9.63
2023-03-29T07:07:37.640Z,9.74
2023-03-29T07:10:18.340Z,9.74
2023-03-29T07:13:17.765Z,9.79
2023-03-29T07:15:48.028Z,9.77
2023-03-29T07:18:41.880Z,9.72
2023-03-29T07:21:15.764Z,9.82
2023-03-29T07:23:45.803Z,9.88
2023-03-29T07:26:28.983Z,9.94
2023-03-29T07:29:03.621Z,10.01
2023-03-29T07:31:35.940Z,10.11
2023-03-29T07:34:25.839Z,9.92
2023-03-29T07:36:55.892Z,9.91
2023-03-29T07:39:26.442Z,9.95
2023-03-29T07:42:26.049Z,10.14
2023-03-29T07:44:58.988Z,10.18
2023-03-29T07:47:35.286Z,10.18
2023-03-29T07:50:07.602Z,10.10
2023-03-29T07:52:38.471Z,10.26
2023-03-29T07:55:10.557Z,10.29
2023-03-29T07:57:57.255Z,10.27
2023-03-29T08:00:30.838Z,10.30
2023-03-29T08:03:20.981Z,10.40
2023-03-29T08:05:51.714Z,10.29
2023-03-29T08:08:22.275Z,10.45
2023-03-29T08:10:59.948Z,10.27
2023-03-29T08:14:02.093Z,10.46
2023-03-29T08:16:58.943Z,10.53
2023-03-29T08:19:29.235Z,10.53
2023-03-29T08:22:11.064Z,10.60
2023-03-29T08:24:59.468Z,10.51
2023-03-29T08:27:37.317Z,10.69
2023-03-29T08:30:12.213Z,10.93
2023-03-29T08:32:48.625Z,11.02
2023-03-29T08:35:20.817Z,11.20
2023-03-29T08:38:14.421Z,11.08
2023-03-29T08:40:44.955Z,11.30
2023-03-29T08:43:39.429Z,11.25
2023-03-29T08:46:35.873Z,11.47
2023-03-29T08:49:26.418Z,11.72
2023-03-29T08:52:03.447Z,11.77
2023-03-29T08:54:44.366Z,11.62
2023-03-29T08:57:22.313Z,11.95
2023-03-29T09:00:05.296Z,12.25
2023-03-29T09:02:38.492Z,12.50
2023-03-29T09:05:25.900Z,12.51
2023-03-29T09:08:05.723Z,12.47
2023-03-29T09:10:47.096Z,12.69
2023-03-29T09:13:37.713Z,12.58
2023-03-29T09:16:21.098Z,13.01
2023-03-29T09:19:08.200Z,13.09
2023-03-29T09:21:47.039Z,12.73
2023-03-29T09:24:39.725Z,12.82
2023-03-29T09:27:24.633Z,13.08
2023-03-29T09:30:07.954Z,13.66
2023-03-29T09:33:03.325Z,13.51
2023-03-29T09:36:02.344Z,13.50
2023-03-29T09:38:42.629Z,13.31
2023-03-29T09:41:26.773Z,13.86
2023-03-29T09:44:00.827Z,14.01
2023-03-29T09:46:42.683Z,13.97
2023-03-29T09:49:18.659Z,13.91
2023-03-29T09:51:53.013Z,14.00
2023-03-29T09:54:26.683Z,14.06
2023-03-29T09:57:22.393Z,14.16
2023-03-29T09:59:54.578Z,14.23
2023-03-29T10:02:24.689Z,14.25
2023-03-29T10:05:01.031Z,14.61
2023-03-29T10:07:44.879Z,14.28
2023-03-29T10:10:25.743Z,14.78
2023-03-29T10:13:00.152Z,14.68
2023-03-29T10:15:32.661Z,14.93
2023-03-29T10:18:05.820Z,15.05
2023-03-29T10:20:38.798Z,15.35
2023-03-29T10:23:11.038Z,15.21
2023-03-29T10:25:44.598Z,15.55
2023-03-29T10:28:21.209Z,15.56
2023-03-29T10:30:58.104Z,15.68
2023-03-29T10:33:34.262Z,15.88
2023-03-29T10:36:07.910Z,15.83
2023-03-29T10:38:40.469Z,15.70
2023-03-29T10:41:16.058Z,16.31
2023-03-29T10:43:50.983Z,16.45
2023-03-29T10:46:25.048Z,16.56
2023-03-29T10:48:59.399Z,16.50
2023-03-29T10:51:34.588Z,16.24
2023-03-29T10:54:06.420Z,16.38
2023-03-29T10:56:46.069Z,16.93
2023-03-29T10:59:30.466Z,17.51
2023-03-29T11:02:28.114Z,17.12
2023-03-29T11:05:12.234Z,17.06
2023-03-29T11:07:58.889Z,17.33
2023-03-29T11:10:43.944Z,17.54
2023-03-29T11:13:28.784Z,17.30
2023-03-29T11:16:11.106Z,16.97
2023-03-29T11:19:01.633Z,17.02
2023-03-29T11:21:42.679Z,17.14
2023-03-29T11:24:30.548Z,17.70
2023-03-29T11:27:16.136Z,17.86
2023-03-29T11:30:03.837Z,17.61
2023-03-29T11:32:44.183Z,17.50
2023-03-29T11:35:33.357Z,17.25
2023-03-29T11:38:13.897Z,16.84
2023-03-29T11:40:54.583Z,17.00
2023-03-29T11:43:32.301Z,16.74
2023-03-29T11:46:15.113Z,16.42
2023-03-29T11:48:53.605Z,16.54
2023-03-29T11:51:29.576Z,16.24
2023-03-29T11:54:08.668Z,16.61
2023-03-29T11:56:47.147Z,16.46
2023-03-29T11:59:27.431Z,16.31
2023-03-29T12:02:12.428Z,16.38
2023-03-29T12:04:52.014Z,17.81
2023-03-29T12:07:29.820Z,18.25
2023-03-29T12:10:05.609Z,17.61
2023-03-29T12:12:48.163Z,17.02
2023-03-29T12:15:22.454Z,16.65
2023-03-29T12:18:05.408Z,16.66
2023-03-29T12:20:42.835Z,16.69
2023-03-29T12:23:20.714Z,17.01
2023-03-29T12:26:00.279Z,16.41
2023-03-29T12:28:54.646Z,16.60
2023-03-29T12:31:37.326Z,16.32
2023-03-29T12:34:38.325Z,16.60
2023-03-29T12:37:40.809Z,18.29
2023-03-29T12:40:38.720Z,16.25
2023-03-29T12:43:33.184Z,16.29
2023-03-29T12:46:25.914Z,16.37
2023-03-29T12:48:59.984Z,16.48
2023-03-29T12:51:37.075Z,16.84
2023-03-29T12:54:13.452Z,17.00
2023-03-29T12:56:56.767Z,17.87
2023-03-29T12:59:39.861Z,17.59
2023-03-29T13:02:28.893Z,16.43
2023-03-29T13:05:01.459Z,16.42
2023-03-29T13:07:46.496Z,16.19
2023-03-29T13:10:33.414Z,15.91
2023-03-29T13:13:17.758Z,15.72
2023-03-29T13:15:48.717Z,15.30
2023-03-29T13:18:38.038Z,14.83
2023-03-29T13:21:23.032Z,14.39
2023-03-29T13:24:06.831Z,14.89
2023-03-29T13:26:53.250Z,15.25
2023-03-29T13:29:57.182Z,15.44
2023-03-29T13:33:01.124Z,15.34
2023-03-29T13:35:48.086Z,15.33
2023-03-29T13:38:26.121Z,15.38
2023-03-29T13:41:07.381Z,15.65
2023-03-29T13:43:40.515Z,15.13
2023-03-29T13:46:41.609Z,15.59
2023-03-29T13:49:23.985Z,15.94
2023-03-29T13:52:09.399Z,16.13
2023-03-29T13:54:48.297Z,15.67
2023-03-29T13:57:24.213Z,15.63
2023-03-29T14:00:02.294Z,15.68
2023-03-29T14:02:49.583Z,15.67
2023-03-29T14:05:24.026Z,15.61
2023-03-29T14:07:56.998Z,15.76
2023-03-29T14:10:30.636Z,15.98
2023-03-29T14:13:04.148Z,16.31
2023-03-29T14:15:49.030Z,16.03
2023-03-29T14:18:24.080Z,15.67
2023-03-29T14:20:57.845Z,16.04
2023-03-29T14:23:31.532Z,16.15
2023-03-29T14:26:09.269Z,16.20
2023-03-29T14:28:48.263Z,16.02
2023-03-29T14:31:22.493Z,15.87
2023-03-29T14:33:56.228Z,16.10
2023-03-29T14:36:27.844Z,16.50
2023-03-29T14:39:03.232Z,19.76
2023-03-29T14:41:34.155Z,17.66
2023-03-29T14:44:09.566Z,17.59
2023-03-29T14:46:40.321Z,19.27
2023-03-29T14:49:12.485Z,19.00
2023-03-29T14:51:43.125Z,20.24
2023-03-29T14:54:22.844Z,21.42
2023-03-29T14:56:54.080Z,21.04
2023-03-29T14:59:31.429Z,20.62
2023-03-29T15:02:01.766Z,20.26
2023-03-29T15:04:37.639Z,21.92
2023-03-29T15:07:08.590Z,21.84
2023-03-29T15:09:40.126Z,21.34
2023-03-29T15:12:10.699Z,21.10
2023-03-29T15:14:44.576Z,20.37
2023-03-29T15:17:47.761Z,20.65
2023-03-29T15:20:25.763Z,21.47
2023-03-29T15:23:00.680Z,22.62
2023-03-29T15:25:36.611Z,21.59
2023-03-29T15:28:07.735Z,19.70
2023-03-29T15:30:54.215Z,18.63
2023-03-29T15:33:37.632Z,17.90
2023-03-29T15:36:10.406Z,18.04
2023-03-29T15:38:44.565Z,18.39
2023-03-29T15:41:17.182Z,18.07
2023-03-29T15:43:47.209Z,18.13
2023-03-29T15:46:19.838Z,18.60
2023-03-29T15:48:50.098Z,18.68
2023-03-29T15:51:20.115Z,18.46
2023-03-29T15:53:50.164Z,18.11
2023-03-29T15:56:23.306Z,18.19
2023-03-29T15:58:53.353Z,18.09
2023-03-29T16:01:37.558Z,17.84
2023-03-29T16:04:09.839Z,17.62
2023-03-29T16:06:41.142Z,17.55
2023-03-29T16:09:12.100Z,17.49
2023-03-29T16:11:43.832Z,17.40
2023-03-29T16:14:24.385Z,17.25
2023-03-29T16:17:01.438Z,17.32
2023-03-29T16:19:33.887Z,17.16
2023-03-29T16:22:07.599Z,16.94
2023-03-29T16:24:38.523Z,16.76
2023-03-29T16:27:08.673Z,16.70
2023-03-29T16:29:42.018Z,16.78
2023-03-29T16:32:15.755Z,16.65
2023-03-29T16:34:46.048Z,16.43
2023-03-29T16:37:16.060Z,16.52
2023-03-29T16:39:46.516Z,16.41
2023-03-29T16:42:20.695Z,16.46
2023-03-29T16:44:51.573Z,16.43
2023-03-29T16:47:24.304Z,16.36
2023-03-29T16:49:55.359Z,16.30
2023-03-29T16:52:25.981Z,16.23
2023-03-29T16:54:55.915Z,16.33
2023-03-29T16:57:26.923Z,16.25
2023-03-29T16:59:57.112Z,16.12
2023-03-29T17:02:29.683Z,15.98
2023-03-29T17:04:59.818Z,15.98
2023-03-29T17:07:29.881Z,16.07
2023-03-29T17:09:59.899Z,15.91
2023-03-29T17:12:29.943Z,15.87
2023-03-29T17:15:00.585Z,15.84
2023-03-29T17:17:33.201Z,15.73
2023-03-29T17:20:03.247Z,15.70
2023-03-29T17:22:33.223Z,15.63
2023-03-29T17:25:03.983Z,15.65
2023-03-29T17:27:33.935Z,15.58
2023-03-29T17:30:04.041Z,15.51
2023-03-29T17:32:36.993Z,15.62
2023-03-29T17:35:08.113Z,15.70
2023-03-29T17:37:38.225Z,15.56
2023-03-29T17:40:13.980Z,15.36
2023-03-29T17:42:46.559Z,15.24
2023-03-29T17:45:17.616Z,15.31
2023-03-29T17:47:50.503Z,15.29
2023-03-29T17:50:21.579Z,15.11
2023-03-29T17:52:51.616Z,15.16
2023-03-29T17:55:22.145Z,15.09
2023-03-29T17:57:52.253Z,15.16
2023-03-29T18:00:23.048Z,15.07
2023-03-29T18:02:57.086Z,15.05
2023-03-29T18:05:27.191Z,15.08
2023-03-29T18:07:57.953Z,14.95
2023-03-29T18:10:28.214Z,14.84
2023-03-29T18:12:58.255Z,14.94
2023-03-29T18:15:28.429Z,14.69
2023-03-29T18:18:01.562Z,14.69
2023-03-29T18:20:31.601Z,14.80
2023-03-29T18:23:01.710Z,14.83
2023-03-29T18:25:32.100Z,14.88
2023-03-29T18:28:02.151Z,14.86
2023-03-29T18:30:32.205Z,14.73
2023-03-29T18:33:04.908Z,14.67
2023-03-29T18:35:34.983Z,14.70
2023-03-29T18:38:06.770Z,14.68
2023-03-29T18:40:37.379Z,14.57
2023-03-29T18:43:07.457Z,14.59
2023-03-29T18:45:37.586Z,14.59
2023-03-29T18:48:10.362Z,14.52
2023-03-29T18:50:41.021Z,14.53
2023-03-29T18:53:11.152Z,14.46
2023-03-29T18:55:43.283Z,14.41
2023-03-29T18:58:13.704Z,14.42
2023-03-29T19:00:45.257Z,14.51
2023-03-29T19:03:18.465Z,14.43
2023-03-29T19:05:53.127Z,14.54
2023-03-29T19:08:26.507Z,14.57
2023-03-29T19:11:05.790Z,14.55
2023-03-29T19:13:42.578Z,14.40
2023-03-29T19:16:30.543Z,14.50
2023-03-29T19:19:14.349Z,14.46
2023-03-29T19:21:47.326Z,14.36
2023-03-29T19:24:18.458Z,14.23
2023-03-29T19:26:55.252Z,14.37
2023-03-29T19:29:27.950Z,14.21
2023-03-29T19:32:03.009Z,14.08
2023-03-29T19:34:36.426Z,14.07
2023-03-29T19:37:06.657Z,14.04
2023-03-29T19:39:37.263Z,14.04
2023-03-29T19:42:07.884Z,14.06
2023-03-29T19:44:38.725Z,13.98
2023-03-29T19:47:12.297Z,14.02
2023-03-29T19:49:46.515Z,13.82
2023-03-29T19:52:20.447Z,13.89
2023-03-29T19:54:56.228Z,13.94
2023-03-29T19:57:28.482Z,13.78
2023-03-29T20:00:01.778Z,13.83
2023-03-29T20:02:36.467Z,13.85
2023-03-29T20:05:12.688Z,13.86
2023-03-29T20:07:47.394Z,13.86
2023-03-29T20:10:17.977Z,13.73
2023-03-29T20:12:50.887Z,13.60
2023-03-29T20:15:21.414Z,13.67
2023-03-29T20:17:57.033Z,13.57
2023-03-29T20:20:32.045Z,13.56
2023-03-29T20:23:08.392Z,13.63
2023-03-29T20:25:41.971Z,13.50
2023-03-29T20:28:17.808Z,13.63
2023-03-29T20:30:51.378Z,13.57
2023-03-29T20:33:21.906Z,13.62
2023-03-29T20:35:57.736Z,13.55
2023-03-29T20:38:28.343Z,13.61
2023-03-29T20:40:58.666Z,13.60
2023-03-29T20:43:30.028Z,13.63
2023-03-29T20:46:02.537Z,13.75
2023-03-29T20:48:33.314Z,13.56
2023-03-29T20:51:10.404Z,13.58
2023-03-29T20:53:43.042Z,13.63
2023-03-29T20:56:16.138Z,13.88
2023-03-29T20:58:46.620Z,13.95
2023-03-29T21:01:17.134Z,13.91
2023-03-29T21:03:49.105Z,14.03
2023-03-29T21:06:24.461Z,14.17
2023-03-29T21:08:55.689Z,14.29
2023-03-29T21:11:26.060Z,14.43
2023-03-29T21:13:57.043Z,14.45
2023-03-29T21:16:29.312Z,14.54
2023-03-29T21:18:59.728Z,14.50
2023-03-29T21:21:36.221Z,14.54
2023-03-29T21:24:08.039Z,14.59
2023-03-29T21:26:47.410Z,14.63
2023-03-29T21:29:17.765Z,14.77
2023-03-29T21:31:50.576Z,14.89
2023-03-29T21:34:21.956Z,14.91
2023-03-29T21:36:56.868Z,14.95
2023-03-29T21:39:29.256Z,14.96
2023-03-29T21:41:59.314Z,14.99
2023-03-29T21:44:29.485Z,15.17
2023-03-29T21:46:59.703Z,15.16
2023-03-29T21:49:29.982Z,15.19
2023-03-29T21:52:02.578Z,15.36
2023-03-29T21:54:32.642Z,15.33
2023-03-29T21:57:02.695Z,15.38
2023-03-29T21:59:32.820Z,15.47
2023-03-29T22:02:02.844Z,15.55
2023-03-29T22:04:36.916Z,15.57
2023-03-29T22:07:13.767Z,15.58
2023-03-29T22:09:47.340Z,15.71
2023-03-29T22:12:18.856Z,15.76
2023-03-29T22:14:49.034Z,15.86
2023-03-29T22:17:19.379Z,15.83
2023-03-29T22:19:49.770Z,15.98
2023-03-29T22:22:22.378Z,16.02
2023-03-29T22:24:55.946Z,16.08
2023-03-29T22:27:26.321Z,16.01
2023-03-29T22:29:56.260Z,16.07
2023-03-29T22:32:26.521Z,16.20
2023-03-29T22:34:56.579Z,16.14
2023-03-29T22:37:29.198Z,16.21
2023-03-29T22:39:59.371Z,16.28
2023-03-29T22:42:29.537Z,16.35
2023-03-29T22:44:59.629Z,16.36
2023-03-29T22:47:29.772Z,16.37
2023-03-29T22:49:59.745Z,16.48
2023-03-29T22:52:32.283Z,16.47
2023-03-29T22:55:02.266Z,16.51
2023-03-29T22:57:32.499Z,16.58
2023-03-29T23:00:02.733Z,16.68
2023-03-29T23:02:32.762Z,16.64
2023-03-29T23:05:02.682Z,16.60
2023-03-29T23:07:36.926Z,16.63
2023-03-29T23:10:08.663Z,16.61
2023-03-29T23:12:39.404Z,16.63
2023-03-29T23:15:11.458Z,16.69
2023-03-29T23:17:41.450Z,16.62
2023-03-29T23:20:13.383Z,16.72
2023-03-29T23:22:45.916Z,16.71
2023-03-29T23:25:15.825Z,16.65
2023-03-29T23:27:45.732Z,16.64
2023-03-29T23:30:16.177Z,16.63
2023-03-29T23:32:46.194Z,16.68
2023-03-29T23:35:16.211Z,16.67
2023-03-29T23:37:49.232Z,16.69
2023-03-29T23:40:19.642Z,16.67
2023-03-29T23:42:49.693Z,16.62
2023-03-29T23:45:22.038Z,16.66
2023-03-29T23:47:52.386Z,16.57
2023-03-29T23:50:22.738Z,16.56
2023-03-29T23:52:55.233Z,16.48
2023-03-29T23:55:25.214Z,16.49
2023-03-29T23:57:55.256Z,16.37
